Eastman, Wisconsin
Current Conditions -  °F | °C
As of 8:55 PM on Sunday 23 Nov 2014 (Local Time) from KPDC Reporting Station
Moderate Fog Moderate Fog  
Wind Chill: 44°   Ceiling: 100
Heat Index: 44°   Visibility: 0.5mi
Dew Point: 43°   Wind: 0mph
Humidity: 96%   Direction: NA
Pressure: 29.23"   Gusts: NA
Location:  43.17°N, 91.02°W
Report Text: KPDC 240255Z AUTO 00000KT 1/2SM FG OVC001 07/06 A2923 RMK AO2 T00690063
Loading
Personal Weather Stations






























Interactive Weather Map New forecast layout! Learn more

10-Day Weather Forecast

Advertisements
Track Severe Weather on mobile